createdAt,value
2022-10-17T00:00:36.712Z,1.38
2022-10-17T00:03:03.343Z,1.50
2022-10-17T00:05:30.042Z,1.60
2022-10-17T00:07:56.425Z,1.58
2022-10-17T00:10:23.269Z,1.42
2022-10-17T00:12:51.513Z,1.40
2022-10-17T00:15:20.230Z,1.50
2022-10-17T00:17:46.636Z,1.63
2022-10-17T00:20:13.486Z,2.08
2022-10-17T00:22:39.908Z,1.40
2022-10-17T00:25:06.503Z,1.45
2022-10-17T00:27:41.335Z,1.65
2022-10-17T00:30:11.618Z,1.45
2022-10-17T00:32:38.067Z,1.80
2022-10-17T00:35:05.007Z,1.50
2022-10-17T00:37:32.313Z,1.90
2022-10-17T00:39:59.102Z,1.67
2022-10-17T00:42:28.052Z,1.55
2022-10-17T00:45:02.597Z,2.00
2022-10-17T00:47:30.395Z,2.17
2022-10-17T00:49:56.921Z,2.22
2022-10-17T00:52:28.313Z,2.10
2022-10-17T00:55:02.757Z,1.85
2022-10-17T00:57:31.718Z,1.85
2022-10-17T01:00:01.874Z,1.75
2022-10-17T01:02:28.870Z,2.17
2022-10-17T01:04:59.318Z,2.10
2022-10-17T01:07:27.642Z,2.25
2022-10-17T01:09:54.100Z,2.30
2022-10-17T01:12:29.086Z,2.10
2022-10-17T01:15:20.506Z,2.05
2022-10-17T01:18:08.069Z,2.28
2022-10-17T01:20:48.668Z,2.30
2022-10-17T01:23:59.988Z,2.40
2022-10-17T01:26:45.278Z,2.60
2022-10-17T01:29:35.743Z,2.60
2022-10-17T01:32:10.017Z,2.50
2022-10-17T01:34:46.804Z,2.60
2022-10-17T01:37:22.438Z,2.75
2022-10-17T01:40:00.183Z,2.70
2022-10-17T01:43:07.359Z,2.85
2022-10-17T01:45:40.614Z,2.78
2022-10-17T01:48:23.923Z,3.50
2022-10-17T01:51:09.349Z,2.80
2022-10-17T01:53:42.260Z,2.95
2022-10-17T01:56:11.398Z,3.05
2022-10-17T01:58:44.274Z,2.72
2022-10-17T02:01:12.751Z,3.20
2022-10-17T02:03:42.717Z,3.00
2022-10-17T02:06:09.169Z,3.05
2022-10-17T02:08:44.940Z,3.28
2022-10-17T02:11:19.004Z,3.15
2022-10-17T02:13:56.456Z,3.53
2022-10-17T02:16:44.817Z,2.85
2022-10-17T02:19:46.765Z,3.33
2022-10-17T02:22:23.647Z,2.97
2022-10-17T02:24:58.252Z,2.88
2022-10-17T02:27:34.973Z,3.70
2022-10-17T02:30:09.136Z,3.40
2022-10-17T02:33:00.856Z,3.53
2022-10-17T02:35:32.312Z,3.50
2022-10-17T02:38:00.246Z,3.38
2022-10-17T02:40:30.256Z,3.75
2022-10-17T02:42:59.533Z,3.65
2022-10-17T02:45:28.947Z,3.30
2022-10-17T02:48:06.369Z,3.45
2022-10-17T02:50:43.241Z,3.40
2022-10-17T02:53:15.465Z,3.85
2022-10-17T02:55:49.222Z,3.40
2022-10-17T02:58:22.765Z,3.78
2022-10-17T03:00:51.034Z,4.10
2022-10-17T03:03:27.233Z,3.85
2022-10-17T03:05:54.012Z,3.65
2022-10-17T03:08:21.479Z,3.85
2022-10-17T03:10:48.076Z,4.13
2022-10-17T03:13:15.740Z,4.43
2022-10-17T03:15:42.191Z,4.18
2022-10-17T03:18:08.670Z,3.78
2022-10-17T03:20:35.348Z,4.55
2022-10-17T03:23:01.948Z,4.25
2022-10-17T03:25:28.281Z,3.72
2022-10-17T03:27:55.066Z,3.88
2022-10-17T03:30:21.550Z,4.15
2022-10-17T03:32:47.903Z,3.80
2022-10-17T03:35:14.904Z,4.88
2022-10-17T03:37:41.699Z,4.22
2022-10-17T03:40:08.674Z,4.13
2022-10-17T03:42:35.035Z,4.68
2022-10-17T03:45:01.512Z,4.45
2022-10-17T03:47:28.852Z,4.30
2022-10-17T03:49:55.779Z,4.85
2022-10-17T03:52:22.218Z,4.70
2022-10-17T03:54:50.119Z,4.30
2022-10-17T03:57:17.539Z,4.43
2022-10-17T03:59:43.901Z,4.10
2022-10-17T04:02:10.594Z,4.45
2022-10-17T04:04:36.931Z,5.00
2022-10-17T04:07:03.463Z,4.50
2022-10-17T04:09:29.791Z,4.40
2022-10-17T04:11:56.107Z,4.75
2022-10-17T04:14:22.462Z,4.45
2022-10-17T04:16:48.819Z,4.28
2022-10-17T04:19:15.232Z,4.10
2022-10-17T04:21:41.747Z,4.82
2022-10-17T04:24:10.888Z,4.82
2022-10-17T04:26:37.384Z,4.15
2022-10-17T04:29:03.750Z,4.45
2022-10-17T04:31:30.094Z,4.90
2022-10-17T04:33:56.477Z,4.70
2022-10-17T04:36:23.354Z,4.57
2022-10-17T04:38:49.727Z,4.50
2022-10-17T04:41:18.343Z,4.45
2022-10-17T04:43:48.474Z,4.57
2022-10-17T04:46:17.583Z,4.28
2022-10-17T04:48:44.005Z,4.47
2022-10-17T04:51:15.275Z,4.47
2022-10-17T04:53:43.305Z,4.43
2022-10-17T04:56:18.243Z,4.40
2022-10-17T04:58:45.799Z,4.03
2022-10-17T05:01:14.860Z,4.40
2022-10-17T05:03:42.267Z,4.25
2022-10-17T05:06:14.687Z,4.40
2022-10-17T05:08:41.870Z,4.13
2022-10-17T05:11:23.908Z,4.50
2022-10-17T05:14:02.061Z,4.70
2022-10-17T05:16:29.359Z,4.53
2022-10-17T05:18:58.062Z,4.35
2022-10-17T05:21:26.737Z,4.72
2022-10-17T05:23:53.712Z,4.72
2022-10-17T05:26:20.557Z,4.90
2022-10-17T05:28:47.001Z,4.90
2022-10-17T05:31:13.571Z,4.30
2022-10-17T05:33:40.849Z,4.55
2022-10-17T05:36:07.615Z,4.65
2022-10-17T05:38:34.158Z,4.50
2022-10-17T05:41:02.301Z,4.90
2022-10-17T05:43:28.869Z,4.45
2022-10-17T05:45:55.740Z,4.32
2022-10-17T05:48:23.568Z,4.50
2022-10-17T05:50:49.948Z,4.53
2022-10-17T05:53:17.163Z,4.20
2022-10-17T05:55:43.519Z,4.47
2022-10-17T05:58:17.597Z,4.43
2022-10-17T06:00:48.658Z,4.40
2022-10-17T06:03:15.024Z,4.00
2022-10-17T06:05:41.479Z,4.60
2022-10-17T06:08:07.819Z,4.57
2022-10-17T06:10:34.184Z,4.40
2022-10-17T06:13:00.510Z,4.25
2022-10-17T06:15:26.882Z,4.13
2022-10-17T06:17:53.228Z,4.10
2022-10-17T06:20:19.579Z,4.90
2022-10-17T06:22:45.974Z,4.47
2022-10-17T06:25:12.472Z,5.03
2022-10-17T06:27:38.866Z,4.45
2022-10-17T06:30:05.651Z,4.75
2022-10-17T06:32:32.248Z,4.95
2022-10-17T06:34:59.044Z,4.82
2022-10-17T06:37:25.438Z,4.28
2022-10-17T06:39:51.798Z,4.45
2022-10-17T06:42:18.198Z,4.90
2022-10-17T06:44:44.520Z,4.97
2022-10-17T06:47:11.304Z,4.55
2022-10-17T06:49:38.119Z,4.60
2022-10-17T06:52:04.880Z,4.78
2022-10-17T06:54:31.432Z,4.50
2022-10-17T06:56:57.853Z,5.03
2022-10-17T06:59:24.300Z,4.78
2022-10-17T07:01:50.691Z,4.38
2022-10-17T07:04:17.236Z,4.93
2022-10-17T07:06:43.830Z,4.68
2022-10-17T07:09:10.439Z,4.30
2022-10-17T07:11:36.925Z,4.65
2022-10-17T07:14:03.382Z,4.65
2022-10-17T07:16:30.134Z,4.90
2022-10-17T07:18:56.823Z,4.32
2022-10-17T07:21:23.172Z,4.30
2022-10-17T07:23:49.624Z,4.88
2022-10-17T07:26:17.797Z,4.65
2022-10-17T07:28:46.064Z,4.85
2022-10-17T07:31:15.963Z,4.40
2022-10-17T07:33:43.735Z,4.50
2022-10-17T07:36:11.018Z,4.15
2022-10-17T07:38:37.990Z,4.18
2022-10-17T07:41:06.924Z,4.15
2022-10-17T07:43:33.854Z,4.47
2022-10-17T07:46:01.909Z,4.80
2022-10-17T07:48:29.747Z,4.38
2022-10-17T07:50:56.087Z,4.78
2022-10-17T07:53:22.570Z,4.72
2022-10-17T07:55:49.632Z,4.13
2022-10-17T07:58:16.445Z,4.60
2022-10-17T08:00:43.185Z,4.47
2022-10-17T08:03:10.848Z,4.25
2022-10-17T08:05:37.202Z,4.53
2022-10-17T08:08:03.618Z,4.15
2022-10-17T08:10:29.935Z,4.38
2022-10-17T08:12:57.701Z,4.30
2022-10-17T08:15:29.339Z,4.38
2022-10-17T08:17:58.753Z,4.25
2022-10-17T08:20:25.186Z,4.28
2022-10-17T08:22:53.247Z,4.35
2022-10-17T08:25:19.603Z,4.03
2022-10-17T08:27:45.942Z,4.13
2022-10-17T08:30:12.364Z,4.00
2022-10-17T08:32:38.958Z,4.35
2022-10-17T08:35:05.703Z,4.32
2022-10-17T08:37:32.744Z,4.03
2022-10-17T08:39:59.370Z,4.63
2022-10-17T08:42:31.709Z,4.15
2022-10-17T08:45:18.462Z,4.65
2022-10-17T08:47:48.434Z,4.03
2022-10-17T08:50:28.695Z,4.28
2022-10-17T08:53:05.910Z,3.63
2022-10-17T08:55:40.119Z,4.22
2022-10-17T08:58:25.975Z,4.07
2022-10-17T09:01:27.062Z,4.03
2022-10-17T09:04:27.679Z,3.75
2022-10-17T09:06:59.475Z,3.97
2022-10-17T09:09:34.711Z,4.18
2022-10-17T09:12:17.458Z,3.97
2022-10-17T09:15:00.947Z,4.13
2022-10-17T09:17:36.376Z,3.70
2022-10-17T09:20:19.856Z,4.20
2022-10-17T09:22:58.779Z,4.15
2022-10-17T09:25:26.457Z,4.20
2022-10-17T09:27:59.191Z,4.28
2022-10-17T09:30:47.309Z,4.25
2022-10-17T09:33:59.460Z,4.30
2022-10-17T09:36:32.723Z,3.92
2022-10-17T09:39:02.312Z,3.85
2022-10-17T09:41:47.389Z,4.32
2022-10-17T09:44:23.763Z,4.40
2022-10-17T09:47:27.966Z,4.28
2022-10-17T09:49:54.416Z,4.40
2022-10-17T09:52:39.100Z,4.38
2022-10-17T09:55:20.455Z,4.35
2022-10-17T09:57:57.573Z,4.18
2022-10-17T10:00:33.534Z,3.90
2022-10-17T10:03:15.340Z,3.47
2022-10-17T10:05:43.448Z,3.80
2022-10-17T10:08:16.165Z,3.60
2022-10-17T10:10:44.103Z,3.45
2022-10-17T10:13:20.370Z,3.80
2022-10-17T10:15:51.165Z,3.80
2022-10-17T10:21:11.038Z,3.63
2022-10-17T10:23:42.778Z,3.60
2022-10-17T10:26:22.645Z,3.55
2022-10-17T10:29:05.012Z,3.78
2022-10-17T10:31:35.733Z,3.20
2022-10-17T10:34:15.570Z,3.28
2022-10-17T10:36:49.717Z,3.65
2022-10-17T10:39:37.616Z,3.53
2022-10-17T10:42:08.439Z,3.65
2022-10-17T10:44:38.176Z,3.40
2022-10-17T10:47:19.006Z,3.67
2022-10-17T10:49:45.669Z,3.40
2022-10-17T10:52:19.691Z,3.30
2022-10-17T10:55:03.948Z,2.72
2022-10-17T10:57:33.874Z,3.15
2022-10-17T11:00:12.410Z,3.38
2022-10-17T11:03:25.111Z,3.05
2022-10-17T11:05:58.277Z,2.72
2022-10-17T11:08:40.842Z,3.00
2022-10-17T11:11:23.790Z,2.92
2022-10-17T11:13:59.399Z,2.88
2022-10-17T11:16:35.500Z,3.50
2022-10-17T11:19:25.058Z,2.83
2022-10-17T11:22:00.616Z,3.20
2022-10-17T11:24:37.952Z,2.90
2022-10-17T11:27:06.270Z,2.95
2022-10-17T11:29:35.778Z,3.08
2022-10-17T11:32:25.145Z,3.15
2022-10-17T11:35:01.976Z,3.22
2022-10-17T11:37:40.876Z,3.25
2022-10-17T11:40:24.462Z,3.50
2022-10-17T11:43:03.505Z,3.55
2022-10-17T11:45:39.054Z,3.30
2022-10-17T11:48:13.731Z,3.58
2022-10-17T11:53:45.252Z,3.28
2022-10-17T11:56:12.663Z,3.42
2022-10-17T11:59:24.410Z,4.05
2022-10-17T12:02:01.910Z,3.72
2022-10-17T12:04:49.707Z,3.25
2022-10-17T12:07:35.463Z,3.65
2022-10-17T12:10:21.134Z,3.95
2022-10-17T12:12:49.417Z,3.85
2022-10-17T12:15:23.383Z,3.88
2022-10-17T12:18:03.917Z,3.75
2022-10-17T12:20:35.504Z,3.90
2022-10-17T12:23:20.320Z,3.78
2022-10-17T12:25:54.995Z,3.85
2022-10-17T12:28:39.444Z,4.47
2022-10-17T12:31:29.651Z,3.55
2022-10-17T12:34:01.964Z,3.55
2022-10-17T12:36:28.316Z,3.65
2022-10-17T12:39:03.923Z,3.42
2022-10-17T12:41:39.448Z,4.20
2022-10-17T12:44:15.145Z,3.28
2022-10-17T12:46:47.843Z,3.33
2022-10-17T12:49:36.437Z,3.45
2022-10-17T12:52:23.181Z,3.40
2022-10-17T12:55:15.455Z,3.70
2022-10-17T12:57:50.471Z,3.70
2022-10-17T13:00:43.802Z,3.53
2022-10-17T13:03:24.803Z,3.58
2022-10-17T13:05:58.975Z,3.20
2022-10-17T13:08:29.966Z,3.40
2022-10-17T13:10:57.109Z,3.38
2022-10-17T13:13:45.341Z,3.30
2022-10-17T13:16:32.004Z,3.28
2022-10-17T13:18:59.905Z,3.10
2022-10-17T13:21:27.076Z,2.90
2022-10-17T13:23:54.366Z,2.88
2022-10-17T13:26:45.622Z,3.25
2022-10-17T13:29:15.102Z,3.50
2022-10-17T13:31:43.635Z,3.03
2022-10-17T13:34:21.859Z,3.28
2022-10-17T13:36:54.286Z,3.55
2022-10-17T13:39:44.905Z,3.15
2022-10-17T13:42:23.842Z,3.78
2022-10-17T13:44:50.634Z,3.40
2022-10-17T13:47:25.372Z,3.10
2022-10-17T13:49:55.173Z,3.22
2022-10-17T13:52:25.276Z,3.67
2022-10-17T13:54:53.851Z,3.17
2022-10-17T13:57:36.133Z,3.25
2022-10-17T14:00:33.621Z,3.20
2022-10-17T14:03:00.111Z,3.20
2022-10-17T14:05:27.882Z,3.80
2022-10-17T14:08:16.736Z,3.40
2022-10-17T14:10:44.646Z,3.50
2022-10-17T14:13:35.890Z,3.45
2022-10-17T14:16:04.039Z,3.42
2022-10-17T14:18:36.573Z,3.42
2022-10-17T14:21:40.527Z,3.83
2022-10-17T14:24:14.813Z,3.47
2022-10-17T14:26:48.706Z,3.58
2022-10-17T14:29:25.087Z,3.45
2022-10-17T14:31:58.724Z,4.05
2022-10-17T14:34:29.917Z,3.50
2022-10-17T14:36:57.301Z,3.55
2022-10-17T14:39:26.174Z,4.10
2022-10-17T14:41:53.193Z,3.90
2022-10-17T14:44:22.885Z,4.28
2022-10-17T14:46:53.907Z,3.85
2022-10-17T14:49:31.246Z,4.10
2022-10-17T14:52:25.540Z,3.60
2022-10-17T14:54:52.026Z,4.30
2022-10-17T14:57:47.787Z,3.88
2022-10-17T15:00:16.620Z,3.97
2022-10-17T15:02:44.099Z,3.55
2022-10-17T15:05:13.256Z,4.07
2022-10-17T15:07:40.522Z,4.03
2022-10-17T15:10:25.665Z,4.18
2022-10-17T15:12:58.863Z,4.35
2022-10-17T15:15:31.773Z,4.20
2022-10-17T15:17:58.986Z,4.60
2022-10-17T15:20:27.920Z,4.45
2022-10-17T15:22:55.253Z,4.50
2022-10-17T15:25:22.033Z,4.50
2022-10-17T15:27:48.413Z,3.63
2022-10-17T15:30:23.839Z,3.97
2022-10-17T15:32:51.772Z,4.43
2022-10-17T15:35:19.221Z,4.43
2022-10-17T15:37:48.955Z,3.72
2022-10-17T15:40:19.221Z,4.20
2022-10-17T15:42:45.624Z,4.22
2022-10-17T15:45:15.407Z,4.18
2022-10-17T15:47:43.507Z,4.78
2022-10-17T15:50:17.407Z,4.28
2022-10-17T15:52:43.964Z,3.95
2022-10-17T15:55:11.197Z,4.57
2022-10-17T15:57:40.992Z,4.40
2022-10-17T16:00:21.344Z,4.70
2022-10-17T16:02:49.251Z,4.22
2022-10-17T16:05:23.020Z,4.50
2022-10-17T16:07:55.941Z,4.38
2022-10-17T16:10:23.169Z,4.10
2022-10-17T16:12:50.260Z,3.83
2022-10-17T16:15:28.007Z,4.47
2022-10-17T16:17:56.158Z,4.63
2022-10-17T16:20:23.918Z,4.35
2022-10-17T16:22:51.606Z,4.28
2022-10-17T16:25:24.274Z,3.83
2022-10-17T16:27:53.089Z,3.67
2022-10-17T16:32:47.612Z,4.20
2022-10-17T16:35:24.472Z,4.03
2022-10-17T16:37:51.187Z,4.22
2022-10-17T16:40:17.646Z,4.68
2022-10-17T16:42:44.274Z,3.90
2022-10-17T16:45:17.544Z,3.70
2022-10-17T16:47:44.007Z,3.92
2022-10-17T16:50:10.530Z,3.70
2022-10-17T16:52:36.855Z,4.60
2022-10-17T16:55:03.346Z,4.55
2022-10-17T16:57:29.705Z,4.03
2022-10-17T16:59:56.123Z,4.20
2022-10-17T17:02:22.559Z,4.50
2022-10-17T17:04:48.959Z,4.00
2022-10-17T17:07:17.331Z,4.13
2022-10-17T17:09:43.676Z,4.45
2022-10-17T17:12:10.142Z,4.32
2022-10-17T17:14:36.635Z,4.07
2022-10-17T17:17:02.965Z,4.60
2022-10-17T17:19:29.344Z,4.38
2022-10-17T17:21:55.663Z,4.35
2022-10-17T17:24:22.183Z,4.40
2022-10-17T17:26:53.943Z,4.32
2022-10-17T17:29:21.267Z,4.28
2022-10-17T17:31:47.833Z,4.45
2022-10-17T17:34:17.241Z,5.03
2022-10-17T17:36:44.761Z,5.40
2022-10-17T17:39:13.182Z,4.35
2022-10-17T17:41:40.570Z,5.05
2022-10-17T17:44:10.125Z,5.50
2022-10-17T17:46:41.079Z,5.07
2022-10-17T17:49:07.434Z,4.88
2022-10-17T17:51:34.647Z,4.85
2022-10-17T17:54:01.118Z,6.22
2022-10-17T17:56:29.799Z,7.10
2022-10-17T17:58:58.590Z,6.50
2022-10-17T18:01:28.165Z,5.53
2022-10-17T18:03:56.327Z,6.10
2022-10-17T18:06:23.338Z,5.55
2022-10-17T18:08:56.227Z,4.93
2022-10-17T18:11:22.676Z,5.75
2022-10-17T18:13:55.989Z,5.60
2022-10-17T18:16:22.636Z,5.65
2022-10-17T18:18:49.248Z,5.28
2022-10-17T18:21:15.687Z,5.05
2022-10-17T18:23:45.519Z,5.47
2022-10-17T18:26:12.983Z,5.70
2022-10-17T18:31:19.079Z,6.05
2022-10-17T18:33:46.186Z,6.47
2022-10-17T18:36:14.533Z,6.25
2022-10-17T18:38:40.988Z,6.72
2022-10-17T18:41:16.494Z,6.45
2022-10-17T18:43:44.434Z,6.40
2022-10-17T18:46:14.946Z,5.82
2022-10-17T18:48:44.689Z,6.05
2022-10-17T18:51:12.927Z,5.93
2022-10-17T18:53:44.379Z,6.38
2022-10-17T18:56:11.873Z,7.03
2022-10-17T18:58:39.034Z,6.97
2022-10-17T19:01:09.438Z,6.85
2022-10-17T19:03:36.276Z,6.63
2022-10-17T19:06:08.123Z,6.80
2022-10-17T19:08:35.842Z,6.95
2022-10-17T19:11:11.522Z,6.97
2022-10-17T19:13:38.549Z,6.78
2022-10-17T19:16:10.082Z,6.75
2022-10-17T19:18:37.143Z,6.57
2022-10-17T19:21:05.666Z,6.32
2022-10-17T19:23:32.143Z,6.95
2022-10-17T19:26:10.047Z,6.22
2022-10-17T19:28:38.902Z,5.85
2022-10-17T19:31:06.211Z,5.95
2022-10-17T19:33:33.574Z,6.00
2022-10-17T19:36:06.533Z,6.90
2022-10-17T19:38:32.910Z,6.07
2022-10-17T19:43:31.503Z,7.03
2022-10-17T19:46:00.665Z,6.38
2022-10-17T19:48:28.075Z,6.40
2022-10-17T19:50:54.492Z,6.47
2022-10-17T19:53:23.310Z,6.40
2022-10-17T19:55:50.641Z,6.63
2022-10-17T19:58:17.491Z,6.03
2022-10-17T20:00:52.107Z,5.93
2022-10-17T20:03:18.720Z,6.07
2022-10-17T20:05:45.858Z,6.60
2022-10-17T20:08:12.501Z,6.35
2022-10-17T20:10:39.174Z,6.05
2022-10-17T20:13:05.524Z,6.65
2022-10-17T20:15:32.290Z,6.53
2022-10-17T20:17:58.741Z,6.20
2022-10-17T20:20:25.419Z,6.75
2022-10-17T20:22:51.950Z,6.75
2022-10-17T20:25:18.345Z,6.35
2022-10-17T20:27:44.965Z,6.57
2022-10-17T20:30:11.778Z,6.90
2022-10-17T20:32:39.957Z,6.38
2022-10-17T20:35:07.386Z,6.55
2022-10-17T20:37:38.550Z,6.03
2022-10-17T20:40:33.580Z,6.07
2022-10-17T20:42:54.886Z,6.57
2022-10-17T20:45:37.282Z,6.28
2022-10-17T20:48:15.103Z,6.18
2022-10-17T20:50:42.949Z,6.85
2022-10-17T20:53:31.837Z,6.80
2022-10-17T20:56:04.946Z,6.32
2022-10-17T20:58:31.378Z,6.85
2022-10-17T21:00:57.702Z,6.53
2022-10-17T21:03:24.321Z,7.13
2022-10-17T21:05:50.775Z,7.88
2022-10-17T21:08:17.473Z,7.20
2022-10-17T21:10:43.809Z,7.30
2022-10-17T21:13:10.147Z,7.28
2022-10-17T21:15:36.474Z,7.63
2022-10-17T21:18:02.948Z,7.10
2022-10-17T21:20:29.332Z,6.60
2022-10-17T21:22:57.222Z,7.57
2022-10-17T21:25:23.662Z,6.65
2022-10-17T21:27:52.603Z,6.85
2022-10-17T21:30:20.867Z,7.32
2022-10-17T21:32:51.512Z,7.70
2022-10-17T21:35:18.246Z,7.80
2022-10-17T21:37:44.573Z,7.68
2022-10-17T21:40:11.916Z,8.18
2022-10-17T21:42:38.243Z,8.07
2022-10-17T21:45:10.693Z,7.63
2022-10-17T21:47:54.859Z,8.23
2022-10-17T21:52:58.034Z,6.82
2022-10-17T21:55:24.381Z,7.40
2022-10-17T21:57:51.490Z,8.05
2022-10-17T22:00:18.466Z,8.80
2022-10-17T22:02:44.785Z,8.90
2022-10-17T22:05:11.142Z,8.05
2022-10-17T22:07:37.450Z,8.57
2022-10-17T22:10:04.098Z,8.45
2022-10-17T22:12:30.638Z,8.00
2022-10-17T22:14:57.090Z,7.80
2022-10-17T22:17:23.518Z,8.30
2022-10-17T22:19:49.892Z,8.18
2022-10-17T22:22:16.228Z,8.60
2022-10-17T22:24:42.588Z,8.30
2022-10-17T22:27:10.306Z,7.80
2022-10-17T22:29:36.809Z,7.65
2022-10-17T22:32:03.143Z,7.22
2022-10-17T22:34:29.462Z,7.47
2022-10-17T22:36:55.810Z,7.47
2022-10-17T22:39:22.165Z,7.50
2022-10-17T22:41:48.534Z,7.35
2022-10-17T22:44:14.868Z,7.60
2022-10-17T22:46:41.214Z,7.35
2022-10-17T22:49:07.795Z,7.65
2022-10-17T22:51:34.164Z,7.78
2022-10-17T22:54:00.679Z,8.05
2022-10-17T22:56:27.129Z,7.28
2022-10-17T22:58:53.479Z,7.80
2022-10-17T23:01:23.918Z,7.68
2022-10-17T23:03:51.642Z,7.85
2022-10-17T23:06:19.038Z,8.27
2022-10-17T23:08:45.708Z,8.70
2022-10-17T23:11:12.243Z,8.90
2022-10-17T23:13:40.602Z,8.48
2022-10-17T23:16:07.907Z,8.27
2022-10-17T23:18:34.487Z,7.50
2022-10-17T23:21:00.826Z,7.47
2022-10-17T23:23:27.227Z,7.50
2022-10-17T23:25:53.551Z,7.93
2022-10-17T23:28:19.968Z,9.13
2022-10-17T23:30:46.690Z,8.88
2022-10-17T23:33:13.944Z,9.35
2022-10-17T23:35:40.414Z,9.70
2022-10-17T23:38:06.812Z,9.80
2022-10-17T23:40:34.720Z,9.57
2022-10-17T23:43:01.323Z,8.48
2022-10-17T23:45:28.004Z,9.13
2022-10-17T23:47:54.370Z,8.70
2022-10-17T23:50:20.803Z,8.43
2022-10-17T23:52:47.238Z,8.32
2022-10-17T23:55:13.652Z,9.07
2022-10-17T23:57:40.013Z,8.93
